createdAt,value
2022-12-01T00:03:58.031Z,102636.94
2022-12-01T00:09:20.224Z,102634.50
2022-12-01T00:14:23.355Z,102645.47
2022-12-01T00:19:26.361Z,102627.78
2022-12-01T00:24:30.513Z,102635.25
2022-12-01T00:29:33.244Z,102641.63
2022-12-01T00:34:37.871Z,102633.69
2022-12-01T00:39:42.019Z,102641.16
2022-12-01T00:44:44.759Z,102646.56
2022-12-01T00:49:48.002Z,102639.69
2022-12-01T00:54:52.283Z,102640.75
2022-12-01T00:59:55.248Z,102647.69
2022-12-01T01:04:57.973Z,102641.03
2022-12-01T01:10:02.252Z,102638.19
2022-12-01T01:15:05.736Z,102643.00
2022-12-01T01:20:09.749Z,102640.03
2022-12-01T01:25:13.839Z,102646.69
2022-12-01T01:30:17.039Z,102654.91
2022-12-01T01:35:19.963Z,102653.81
2022-12-01T01:40:24.251Z,102650.50
2022-12-01T01:45:30.610Z,102653.13
2022-12-01T01:50:33.495Z,102659.69
2022-12-01T01:55:38.070Z,102656.59
2022-12-01T02:00:43.894Z,102658.31
2022-12-01T02:05:47.487Z,102663.13
2022-12-01T02:11:23.397Z,102658.69
2022-12-01T02:16:35.645Z,102662.25
2022-12-01T02:21:52.662Z,102666.84
2022-12-01T02:27:03.269Z,102662.25
2022-12-01T02:32:16.662Z,102662.09
2022-12-01T02:37:28.501Z,102667.28
2022-12-01T02:42:51.832Z,102666.53
2022-12-01T02:48:01.068Z,102663.00
2022-12-01T02:53:07.412Z,102657.47
2022-12-01T02:58:14.757Z,102663.75
2022-12-01T03:03:36.105Z,102658.56
2022-12-01T03:08:49.164Z,102662.66
2022-12-01T03:14:03.028Z,102665.25
2022-12-01T03:19:11.063Z,102668.56
2022-12-01T03:24:15.994Z,102669.69
2022-12-01T03:29:25.937Z,102665.81
2022-12-01T03:34:37.117Z,102657.84
2022-12-01T03:39:42.433Z,102658.75
2022-12-01T03:44:49.900Z,102654.50
2022-12-01T03:49:55.322Z,102652.28
2022-12-01T03:55:11.903Z,102650.97
2022-12-01T04:00:16.953Z,102649.69
2022-12-01T04:05:25.179Z,102650.78
2022-12-01T04:10:28.400Z,102658.91
2022-12-01T04:15:31.118Z,102654.88
2022-12-01T04:20:35.527Z,102649.16
2022-12-01T04:25:38.270Z,102657.84
2022-12-01T04:30:41.022Z,102654.16
2022-12-01T04:35:45.113Z,102656.16
2022-12-01T04:40:47.876Z,102654.13
2022-12-01T04:45:50.764Z,102656.53
2022-12-01T04:50:54.851Z,102670.41
2022-12-01T04:55:57.697Z,102663.00
2022-12-01T05:01:02.669Z,102672.25
2022-12-01T05:06:09.020Z,102664.69
2022-12-01T05:11:13.132Z,102661.72
2022-12-01T05:16:17.710Z,102663.00
2022-12-01T05:21:21.858Z,102669.28
2022-12-01T05:26:24.886Z,102675.81
2022-12-01T05:31:27.682Z,102671.16
2022-12-01T05:36:31.902Z,102686.38
2022-12-01T05:41:34.692Z,102684.88
2022-12-01T05:46:37.409Z,102686.91
2022-12-01T05:51:41.540Z,102687.09
2022-12-01T05:56:44.694Z,102690.81
2022-12-01T06:01:47.510Z,102692.44
2022-12-01T06:06:51.676Z,102698.59
2022-12-01T06:11:54.441Z,102705.09
2022-12-01T06:16:57.226Z,102708.22
2022-12-01T06:22:01.398Z,102710.28
2022-12-01T06:27:04.223Z,102716.03
2022-12-01T06:32:07.186Z,102719.94
2022-12-01T06:37:11.447Z,102719.94
2022-12-01T06:42:14.204Z,102716.97
2022-12-01T06:47:16.974Z,102718.59
2022-12-01T06:52:21.051Z,102733.97
2022-12-01T06:57:23.797Z,102731.22
2022-12-01T07:02:26.860Z,102734.34
2022-12-01T07:07:31.032Z,102732.91
2022-12-01T07:12:34.308Z,102736.22
2022-12-01T07:17:37.380Z,102739.53
2022-12-01T07:22:42.980Z,102738.44
2022-12-01T07:27:45.736Z,102736.75
2022-12-01T07:32:48.486Z,102740.66
2022-12-01T07:37:56.774Z,102738.44
2022-12-01T07:42:59.503Z,102753.28
2022-12-01T07:48:02.240Z,102750.88
2022-12-01T07:53:06.839Z,102746.97
2022-12-01T07:58:09.609Z,102756.06
2022-12-01T08:03:12.431Z,102755.31
2022-12-01T08:08:16.631Z,102756.78
2022-12-01T08:13:19.870Z,102759.00
2022-12-01T08:18:22.903Z,102768.66
2022-12-01T08:23:27.029Z,102766.44
2022-12-01T08:28:30.241Z,102773.84
2022-12-01T08:33:32.977Z,102782.91
2022-12-01T08:38:37.203Z,102777.00
2022-12-01T08:43:57.384Z,102785.13
2022-12-01T08:49:01.953Z,102781.81
2022-12-01T08:54:06.225Z,102787.19
2022-12-01T08:59:09.437Z,102787.19
2022-12-01T09:04:12.150Z,102797.38
2022-12-01T09:09:18.460Z,102797.75
2022-12-01T09:14:23.181Z,102800.34
2022-12-01T09:19:25.904Z,102808.69
2022-12-01T09:24:30.380Z,102803.84
2022-12-01T09:29:33.564Z,102802.75
2022-12-01T09:34:36.287Z,102797.38
2022-12-01T09:39:40.360Z,102798.47
2022-12-01T09:44:47.548Z,102808.84
2022-12-01T09:49:59.520Z,102806.09
2022-12-01T09:55:03.751Z,102804.81
2022-12-01T10:00:12.532Z,102794.78
2022-12-01T10:05:19.576Z,102796.44
2022-12-01T10:10:28.852Z,102792.56
2022-12-01T10:15:40.658Z,102785.31
2022-12-01T10:20:49.985Z,102791.59
2022-12-01T10:25:58.456Z,102775.84
2022-12-01T10:31:10.765Z,102777.91
2022-12-01T10:36:13.826Z,102772.72
2022-12-01T10:41:25.622Z,102767.16
2022-12-01T10:46:38.546Z,102765.09
2022-12-01T10:51:53.117Z,102763.63
2022-12-01T10:56:58.431Z,102755.09
2022-12-01T11:02:03.819Z,102748.97
2022-12-01T11:07:07.429Z,102752.88
2022-12-01T11:12:16.220Z,102746.91
2022-12-01T11:17:32.406Z,102741.91
2022-12-01T11:22:35.173Z,102737.84
2022-12-01T11:27:51.407Z,102736.88
2022-12-01T11:32:57.089Z,102737.69
2022-12-01T11:38:32.198Z,102741.19
2022-12-01T11:43:30.650Z,102730.28
2022-12-01T11:48:36.269Z,102727.69
2022-12-01T11:53:40.538Z,102736.56
2022-12-01T11:58:46.693Z,102742.13
2022-12-01T12:03:59.635Z,102742.72
2022-12-01T12:09:24.422Z,102728.22
2022-12-01T12:14:46.454Z,102725.06
2022-12-01T12:20:08.180Z,102732.47
2022-12-01T12:25:24.251Z,102734.31
2022-12-01T12:30:30.719Z,102735.63
2022-12-01T12:35:45.407Z,102730.06
2022-12-01T12:40:55.808Z,102736.53
2022-12-01T12:46:07.412Z,102721.13
2022-12-01T12:51:16.832Z,102728.75
2022-12-01T12:56:23.563Z,102728.94
2022-12-01T13:01:32.801Z,102722.28
2022-12-01T13:06:41.394Z,102722.84
2022-12-01T13:11:48.586Z,102730.66
2022-12-01T13:16:57.287Z,102726.38
2022-12-01T13:22:01.775Z,102725.28
2022-12-01T13:27:14.177Z,102733.06
2022-12-01T13:32:32.647Z,102738.06
2022-12-01T13:37:39.106Z,102734.53
2022-12-01T13:42:42.205Z,102732.16
2022-12-01T13:47:53.805Z,102726.75
2022-12-01T13:53:11.725Z,102726.03
2022-12-01T13:58:43.878Z,102721.78
2022-12-01T14:03:57.068Z,102722.69
2022-12-01T14:09:02.502Z,102724.91
2022-12-01T14:14:26.038Z,102723.63
2022-12-01T14:19:35.448Z,102730.66
2022-12-01T14:24:42.259Z,102723.81
2022-12-01T14:29:45.040Z,102738.09
2022-12-01T14:34:52.653Z,102729.56
2022-12-01T14:39:59.493Z,102723.25
2022-12-01T14:45:05.280Z,102726.56
2022-12-01T14:50:16.106Z,102723.44
2022-12-01T14:55:22.001Z,102720.28
2022-12-01T15:00:25.813Z,102718.06
2022-12-01T15:05:32.504Z,102715.84
2022-12-01T15:10:35.526Z,102720.13
2022-12-01T15:15:38.261Z,102716.03
2022-12-01T15:20:47.694Z,102710.66
2022-12-01T15:25:50.764Z,102709.72
2022-12-01T15:30:55.884Z,102702.13
2022-12-01T15:36:01.536Z,102698.44
2022-12-01T15:41:28.552Z,102695.09
2022-12-01T15:46:31.940Z,102693.44
2022-12-01T15:51:36.436Z,102688.25
2022-12-01T15:56:41.963Z,102697.31
2022-12-01T16:01:45.832Z,102699.72
2022-12-01T16:18:29.428Z,102717.88
2022-12-01T16:23:33.742Z,102721.41
2022-12-01T16:28:36.594Z,102713.81
2022-12-01T16:33:40.682Z,102708.59
2022-12-01T16:38:43.731Z,102708.03
2022-12-01T16:43:59.429Z,102712.13
2022-12-01T16:49:10.643Z,102714.91
2022-12-01T16:54:13.445Z,102717.13
2022-12-01T16:59:16.193Z,102717.84
2022-12-01T17:04:20.299Z,102724.13
2022-12-01T17:09:23.703Z,102713.19
2022-12-01T17:14:26.493Z,102721.31
2022-12-01T17:19:30.631Z,102727.09
2022-12-01T17:24:33.380Z,102737.63
2022-12-01T17:29:36.129Z,102741.28
2022-12-01T17:34:40.288Z,102748.06
2022-12-01T17:39:43.143Z,102756.22
2022-12-01T17:44:45.928Z,102746.38
2022-12-01T17:49:50.011Z,102757.81
2022-12-01T17:54:54.958Z,102758.19
2022-12-01T17:59:57.683Z,102754.28
2022-12-01T18:05:01.843Z,102758.53
2022-12-01T18:10:04.932Z,102757.72
2022-12-01T18:15:08.717Z,102764.50
2022-12-01T18:20:13.736Z,102769.50
2022-12-01T18:25:16.525Z,102770.88
2022-12-01T18:30:19.353Z,102769.88
2022-12-01T18:35:26.285Z,102766.91
2022-12-01T18:40:36.485Z,102769.53
2022-12-01T18:45:40.503Z,102755.00
2022-12-01T18:50:44.681Z,102745.78
2022-12-01T18:55:47.474Z,102748.88
2022-12-01T19:00:50.309Z,102743.50
2022-12-01T19:05:54.505Z,102739.50
2022-12-01T19:11:01.073Z,102741.25
2022-12-01T19:16:06.963Z,102731.56
2022-12-01T19:21:13.191Z,102726.06
2022-12-01T19:26:18.761Z,102719.72
2022-12-01T19:31:25.166Z,102722.88
2022-12-01T19:36:29.579Z,102728.06
2022-12-01T19:41:32.318Z,102721.34
2022-12-01T19:46:35.087Z,102727.91
2022-12-01T19:51:41.986Z,102727.25
2022-12-01T19:56:46.467Z,102725.63
2022-12-01T20:01:49.847Z,102719.69
2022-12-01T20:06:54.376Z,102720.59
2022-12-01T20:11:57.468Z,102708.91
2022-12-01T20:17:00.274Z,102719.66
2022-12-01T20:22:04.474Z,102728.34
2022-12-01T20:27:07.360Z,102730.81
2022-12-01T20:32:11.188Z,102725.78
2022-12-01T20:37:15.888Z,102726.69
2022-12-01T20:42:22.365Z,102722.97
2022-12-01T20:47:25.199Z,102725.75
2022-12-01T20:52:29.607Z,102727.06
2022-12-01T20:57:32.369Z,102735.94
2022-12-01T21:02:35.184Z,102719.75
2022-12-01T21:07:39.577Z,102723.81
2022-12-01T21:13:01.749Z,102726.38
2022-12-01T21:18:10.373Z,102723.75
2022-12-01T21:23:16.885Z,102727.84
2022-12-01T21:28:24.044Z,102729.56
2022-12-01T21:33:29.380Z,102721.63
2022-12-01T21:38:34.053Z,102723.28
2022-12-01T21:43:38.661Z,102717.94
2022-12-01T21:48:41.953Z,102722.03
2022-12-01T21:53:46.472Z,102715.53
2022-12-01T21:58:50.020Z,102722.63
2022-12-01T22:03:54.160Z,102729.91
2022-12-01T22:09:03.331Z,102715.78
2022-12-01T22:14:13.850Z,102710.59
2022-12-01T22:19:29.688Z,102711.75
2022-12-01T22:24:40.437Z,102710.44
2022-12-01T22:29:45.586Z,102715.06
2022-12-01T22:34:53.766Z,102714.00
2022-12-01T22:39:58.544Z,102701.56
2022-12-01T22:45:02.355Z,102700.25
2022-12-01T22:50:25.141Z,102701.44
2022-12-01T22:55:29.262Z,102703.88
2022-12-01T23:00:32.001Z,102699.97
2022-12-01T23:05:35.492Z,102692.72
2022-12-01T23:10:40.842Z,102693.31
2022-12-01T23:15:46.812Z,102687.91
2022-12-01T23:20:52.037Z,102690.88
2022-12-01T23:25:57.076Z,102684.91
2022-12-01T23:31:00.705Z,102683.63
2022-12-01T23:36:13.519Z,102680.66
2022-12-01T23:41:25.473Z,102688.47
2022-12-01T23:46:29.677Z,102675.50
2022-12-01T23:51:36.253Z,102678.84
2022-12-01T23:56:40.365Z,102674.75
